createdAt,value
2023-03-17T00:01:20.789Z,72.24
2023-03-17T00:03:49.994Z,72.46
2023-03-17T00:06:19.260Z,72.36
2023-03-17T00:08:46.557Z,72.42
2023-03-17T00:11:14.951Z,72.05
2023-03-17T00:13:42.282Z,72.12
2023-03-17T00:16:23.114Z,72.67
2023-03-17T00:18:50.589Z,72.06
2023-03-17T00:21:19.943Z,72.59
2023-03-17T00:23:50.043Z,72.60
2023-03-17T00:26:16.894Z,72.23
2023-03-17T00:28:43.908Z,72.19
2023-03-17T00:31:15.511Z,72.20
2023-03-17T00:33:43.507Z,72.64
2023-03-17T00:36:13.684Z,72.33
2023-03-17T00:38:40.537Z,72.49
2023-03-17T00:41:09.428Z,72.71
2023-03-17T00:43:36.928Z,72.48
2023-03-17T00:46:11.059Z,72.45
2023-03-17T00:48:39.212Z,72.42
2023-03-17T00:51:06.159Z,72.33
2023-03-17T00:53:33.493Z,72.01
2023-03-17T00:56:00.681Z,72.17
2023-03-17T00:58:29.309Z,72.19
2023-03-17T01:00:56.707Z,72.16
2023-03-17T01:03:24.021Z,72.18
2023-03-17T01:05:52.876Z,72.09
2023-03-17T01:08:20.180Z,72.02
2023-03-17T01:10:48.078Z,72.16
2023-03-17T01:13:15.612Z,72.15
2023-03-17T01:15:44.198Z,72.16
2023-03-17T01:18:12.152Z,72.57
2023-03-17T01:20:39.027Z,72.22
2023-03-17T01:23:05.907Z,72.43
2023-03-17T01:25:33.842Z,72.08
2023-03-17T01:28:00.751Z,72.15
2023-03-17T01:30:29.559Z,72.46
2023-03-17T01:32:57.198Z,72.50
2023-03-17T01:35:24.604Z,72.28
2023-03-17T01:37:51.891Z,71.93
2023-03-17T01:40:28.987Z,72.16
2023-03-17T01:43:02.302Z,72.14
2023-03-17T01:45:47.535Z,72.09
2023-03-17T01:48:15.359Z,71.83
2023-03-17T01:50:42.701Z,71.91
2023-03-17T01:53:09.733Z,71.94
2023-03-17T01:55:37.059Z,72.11
2023-03-17T01:58:03.887Z,71.95
2023-03-17T02:00:31.231Z,72.36
2023-03-17T02:02:58.395Z,72.10
2023-03-17T02:05:26.676Z,72.55
2023-03-17T02:07:53.812Z,71.94
2023-03-17T02:10:28.915Z,72.33
2023-03-17T02:12:58.839Z,71.91
2023-03-17T02:15:35.736Z,72.35
2023-03-17T02:18:03.851Z,71.70
2023-03-17T02:20:31.068Z,71.69
2023-03-17T02:22:58.974Z,71.93
2023-03-17T02:25:28.691Z,71.48
2023-03-17T02:27:57.874Z,71.56
2023-03-17T02:30:24.942Z,71.07
2023-03-17T02:32:51.943Z,71.51
2023-03-17T02:35:21.961Z,71.47
2023-03-17T02:37:48.728Z,71.04
2023-03-17T02:40:15.791Z,71.38
2023-03-17T02:42:42.752Z,71.10
2023-03-17T02:45:11.717Z,70.95
2023-03-17T02:47:38.625Z,71.38
2023-03-17T02:50:05.715Z,71.02
2023-03-17T02:52:32.582Z,70.72
2023-03-17T02:54:59.356Z,70.58
2023-03-17T02:57:26.764Z,69.89
2023-03-17T02:59:53.975Z,70.47
2023-03-17T03:02:20.777Z,70.62
2023-03-17T03:04:47.894Z,71.10
2023-03-17T03:07:14.707Z,70.68
2023-03-17T03:09:42.203Z,71.10
2023-03-17T03:12:10.185Z,71.47
2023-03-17T03:14:37.655Z,71.52
2023-03-17T03:17:04.573Z,71.46
2023-03-17T03:19:31.402Z,71.19
2023-03-17T03:21:58.221Z,71.57
2023-03-17T03:24:25.049Z,71.18
2023-03-17T03:26:52.166Z,70.77
2023-03-17T03:29:18.971Z,70.60
2023-03-17T03:31:46.149Z,70.76
2023-03-17T03:34:13.241Z,70.79
2023-03-17T03:36:39.990Z,70.49
2023-03-17T03:39:08.177Z,70.03
2023-03-17T03:41:35.323Z,70.54
2023-03-17T03:44:02.096Z,70.50
2023-03-17T03:46:29.127Z,70.29
2023-03-17T03:48:55.903Z,70.40
2023-03-17T03:51:22.790Z,70.47
2023-03-17T03:53:49.524Z,71.18
2023-03-17T03:56:34.996Z,70.88
2023-03-17T03:59:01.793Z,70.64
2023-03-17T04:01:28.877Z,70.11
2023-03-17T04:03:55.829Z,70.32
2023-03-17T04:06:22.866Z,70.47
2023-03-17T04:08:49.792Z,70.04
2023-03-17T04:11:16.809Z,69.71
2023-03-17T04:13:43.758Z,70.22
2023-03-17T04:16:13.383Z,70.34
2023-03-17T04:18:40.382Z,70.29
2023-03-17T04:21:08.447Z,70.11
2023-03-17T04:23:35.249Z,70.24
2023-03-17T04:26:02.549Z,69.40
2023-03-17T04:28:29.354Z,69.82
2023-03-17T04:30:56.605Z,70.14
2023-03-17T04:33:25.754Z,69.71
2023-03-17T04:35:57.148Z,69.42
2023-03-17T04:38:24.049Z,69.72
2023-03-17T04:40:51.233Z,69.12
2023-03-17T04:43:18.384Z,68.98
2023-03-17T04:45:45.400Z,69.65
2023-03-17T04:48:12.216Z,68.92
2023-03-17T04:50:39.219Z,69.29
2023-03-17T04:53:06.920Z,68.05
2023-03-17T04:55:33.804Z,68.72
2023-03-17T04:58:01.177Z,69.17
2023-03-17T05:00:32.008Z,68.81
2023-03-17T05:02:58.797Z,69.55
2023-03-17T05:05:25.594Z,69.50
2023-03-17T05:07:52.538Z,69.76
2023-03-17T05:10:19.412Z,69.75
2023-03-17T05:12:46.368Z,69.85
2023-03-17T05:15:13.340Z,69.39
2023-03-17T05:17:42.343Z,69.57
2023-03-17T05:20:09.461Z,69.34
2023-03-17T05:22:36.665Z,69.42
2023-03-17T05:25:04.026Z,68.81
2023-03-17T05:27:31.564Z,68.81
2023-03-17T05:29:58.382Z,67.32
2023-03-17T05:32:25.802Z,68.47
2023-03-17T05:34:52.775Z,68.43
2023-03-17T05:37:19.495Z,68.22
2023-03-17T05:39:47.042Z,68.45
2023-03-17T05:42:14.030Z,68.51
2023-03-17T05:44:41.933Z,69.03
2023-03-17T05:47:08.816Z,67.71
2023-03-17T05:49:35.902Z,64.83
2023-03-17T05:52:03.190Z,65.44
2023-03-17T05:54:30.036Z,67.03
2023-03-17T05:56:56.781Z,67.30
2023-03-17T05:59:23.561Z,63.58
2023-03-17T06:01:50.455Z,66.00
2023-03-17T06:04:17.360Z,66.59
2023-03-17T06:06:44.253Z,67.00
2023-03-17T06:09:11.007Z,67.15
2023-03-17T06:11:38.307Z,67.64
2023-03-17T06:14:05.068Z,67.70
2023-03-17T06:16:33.391Z,67.48
2023-03-17T06:19:00.440Z,67.50
2023-03-17T06:21:27.300Z,65.00
2023-03-17T06:23:54.663Z,66.55
2023-03-17T06:26:21.522Z,64.56
2023-03-17T06:28:48.262Z,65.94
2023-03-17T06:31:15.653Z,63.88
2023-03-17T06:33:42.478Z,63.71
2023-03-17T06:36:09.693Z,64.78
2023-03-17T06:38:36.643Z,65.31
2023-03-17T06:41:03.568Z,65.56
2023-03-17T06:43:31.500Z,65.77
2023-03-17T06:45:58.813Z,65.73
2023-03-17T06:48:25.667Z,64.20
2023-03-17T06:50:52.673Z,65.41
2023-03-17T06:53:19.539Z,63.76
2023-03-17T06:55:46.805Z,65.30
2023-03-17T06:58:16.111Z,65.91
2023-03-17T07:00:45.624Z,64.31
2023-03-17T07:03:12.475Z,65.86
2023-03-17T07:05:39.540Z,65.34
2023-03-17T07:08:06.521Z,65.16
2023-03-17T07:10:33.413Z,61.20
2023-03-17T07:13:00.434Z,60.63
2023-03-17T07:15:27.581Z,63.41
2023-03-17T07:17:54.596Z,63.92
2023-03-17T07:20:21.753Z,64.05
2023-03-17T07:22:48.673Z,64.61
2023-03-17T07:25:15.859Z,65.46
2023-03-17T07:27:42.748Z,64.14
2023-03-17T07:30:10.925Z,63.57
2023-03-17T07:32:37.861Z,64.89
2023-03-17T07:35:05.228Z,64.43
2023-03-17T07:37:32.145Z,63.49
2023-03-17T07:39:58.996Z,61.24
2023-03-17T07:42:25.785Z,62.46
2023-03-17T07:44:52.687Z,63.66
2023-03-17T07:47:19.525Z,63.44
2023-03-17T07:49:47.005Z,64.51
2023-03-17T07:52:13.864Z,64.51
2023-03-17T07:54:42.981Z,64.30
2023-03-17T07:57:10.500Z,65.01
2023-03-17T07:59:38.376Z,65.45
2023-03-17T08:02:05.289Z,65.06
2023-03-17T08:04:32.229Z,64.88
2023-03-17T08:06:59.093Z,64.20
2023-03-17T08:09:26.432Z,64.57
2023-03-17T08:11:53.233Z,64.43
2023-03-17T08:14:20.605Z,64.06
2023-03-17T08:16:47.627Z,63.90
2023-03-17T08:19:14.507Z,63.65
2023-03-17T08:21:41.453Z,64.13
2023-03-17T08:24:08.313Z,64.07
2023-03-17T08:26:38.359Z,62.93
2023-03-17T08:29:05.265Z,61.16
2023-03-17T08:31:34.137Z,60.63
2023-03-17T08:34:01.196Z,60.65
2023-03-17T08:36:28.686Z,61.10
2023-03-17T08:38:55.474Z,61.87
2023-03-17T08:41:23.905Z,62.37
2023-03-17T08:43:51.781Z,63.31
2023-03-17T08:46:20.580Z,60.71
2023-03-17T08:48:48.507Z,62.37
2023-03-17T08:51:18.398Z,63.23
2023-03-17T08:53:46.544Z,63.94
2023-03-17T08:56:14.227Z,63.46
2023-03-17T08:58:42.747Z,56.48
2023-03-17T09:01:10.987Z,54.86
2023-03-17T09:03:39.535Z,54.17
2023-03-17T09:06:07.788Z,56.00
2023-03-17T09:08:34.767Z,59.92
2023-03-17T09:11:02.492Z,55.83
2023-03-17T09:13:29.465Z,58.25
2023-03-17T09:15:57.389Z,59.38
2023-03-17T09:18:24.366Z,59.08
2023-03-17T09:20:51.316Z,58.13
2023-03-17T09:23:18.138Z,56.76
2023-03-17T09:25:44.974Z,51.07
2023-03-17T09:28:12.399Z,56.75
2023-03-17T09:30:45.407Z,58.55
2023-03-17T09:33:13.374Z,53.12
2023-03-17T09:35:41.284Z,54.69
2023-03-17T09:38:08.792Z,55.53
2023-03-17T09:40:49.767Z,53.29
2023-03-17T09:43:37.202Z,57.94
2023-03-17T09:46:27.304Z,58.63
2023-03-17T09:49:00.393Z,53.95
2023-03-17T09:51:28.646Z,55.58
2023-03-17T09:54:00.341Z,58.58
2023-03-17T09:56:28.710Z,58.80
2023-03-17T09:58:58.347Z,55.86
2023-03-17T10:01:25.604Z,56.23
2023-03-17T10:03:52.593Z,55.47
2023-03-17T10:06:28.525Z,55.81
2023-03-17T10:08:58.922Z,57.52
2023-03-17T10:11:46.112Z,55.12
2023-03-17T10:14:16.116Z,57.70
2023-03-17T10:16:48.496Z,57.96
2023-03-17T10:19:24.341Z,57.92
2023-03-17T10:21:54.161Z,57.87
2023-03-17T10:24:22.137Z,57.81
2023-03-17T10:26:53.471Z,58.82
2023-03-17T10:29:24.105Z,58.86
2023-03-17T10:31:52.432Z,59.09
2023-03-17T10:34:21.492Z,59.15
2023-03-17T10:36:51.145Z,58.78
2023-03-17T10:39:19.992Z,57.01
2023-03-17T10:41:52.768Z,56.31
2023-03-17T10:44:43.172Z,55.60
2023-03-17T10:47:28.774Z,52.14
2023-03-17T10:49:57.171Z,56.13
2023-03-17T10:52:28.694Z,58.13
2023-03-17T10:54:56.171Z,58.28
2023-03-17T10:57:23.161Z,57.63
2023-03-17T10:59:53.798Z,55.78
2023-03-17T11:02:24.414Z,56.61
2023-03-17T11:04:54.227Z,58.22
2023-03-17T11:07:27.208Z,57.61
2023-03-17T11:09:57.760Z,57.40
2023-03-17T11:12:40.675Z,57.83
2023-03-17T11:15:12.169Z,58.43
2023-03-17T11:17:39.905Z,58.15
2023-03-17T11:20:06.667Z,55.10
2023-03-17T11:22:38.012Z,54.75
2023-03-17T11:25:14.022Z,53.61
2023-03-17T11:27:43.972Z,56.73
2023-03-17T11:30:30.635Z,57.50
2023-03-17T11:33:03.616Z,58.45
2023-03-17T11:35:34.488Z,58.10
2023-03-17T11:38:19.437Z,57.42
2023-03-17T11:40:51.977Z,57.46
2023-03-17T11:43:27.913Z,57.89
2023-03-17T11:46:04.920Z,57.06
2023-03-17T11:48:38.344Z,53.25
2023-03-17T11:51:14.072Z,54.41
2023-03-17T11:53:47.005Z,50.92
2023-03-17T11:56:21.542Z,53.20
2023-03-17T11:58:53.503Z,44.82
2023-03-17T12:01:23.888Z,52.67
2023-03-17T12:03:54.490Z,53.43
2023-03-17T12:06:32.789Z,49.87
2023-03-17T12:09:03.934Z,47.44
2023-03-17T12:11:35.119Z,46.11
2023-03-17T12:14:17.698Z,49.58
2023-03-17T12:16:48.187Z,51.81
2023-03-17T12:19:22.305Z,52.51
2023-03-17T12:21:59.371Z,49.35
2023-03-17T12:24:31.632Z,51.49
2023-03-17T12:27:11.883Z,51.04
2023-03-17T12:29:43.163Z,51.30
2023-03-17T12:32:25.035Z,51.65
2023-03-17T12:34:55.434Z,42.76
2023-03-17T12:37:25.086Z,51.29
2023-03-17T12:40:00.886Z,54.07
2023-03-17T12:42:43.578Z,49.90
2023-03-17T12:45:10.458Z,51.86
2023-03-17T12:47:43.100Z,52.65
2023-03-17T12:50:10.775Z,46.35
2023-03-17T12:52:56.031Z,55.79
2023-03-17T12:55:24.521Z,53.32
2023-03-17T12:58:02.251Z,53.89
2023-03-17T13:00:33.460Z,52.98
2023-03-17T13:03:26.926Z,53.96
2023-03-17T13:05:58.663Z,51.50
2023-03-17T13:08:28.598Z,52.27
2023-03-17T13:11:22.201Z,54.86
2023-03-17T13:13:59.583Z,53.17
2023-03-17T13:16:41.044Z,45.71
2023-03-17T13:19:19.447Z,47.04
2023-03-17T13:22:09.774Z,43.92
2023-03-17T13:24:39.397Z,46.24
2023-03-17T13:27:10.296Z,46.49
2023-03-17T13:29:37.075Z,50.07
2023-03-17T13:32:16.015Z,45.71
2023-03-17T13:34:49.897Z,40.19
2023-03-17T13:37:30.896Z,50.80
2023-03-17T13:40:11.013Z,44.05
2023-03-17T13:42:37.993Z,49.56
2023-03-17T13:45:17.118Z,44.08
2023-03-17T13:47:44.634Z,45.91
2023-03-17T13:50:17.019Z,38.97
2023-03-17T13:52:55.089Z,46.28
2023-03-17T13:55:24.979Z,39.62
2023-03-17T13:58:10.482Z,37.98
2023-03-17T14:00:45.368Z,43.03
2023-03-17T14:03:16.058Z,42.26
2023-03-17T14:05:46.749Z,44.53
2023-03-17T14:08:22.003Z,48.51
2023-03-17T14:10:56.172Z,46.66
2023-03-17T14:13:23.036Z,47.26
2023-03-17T14:15:56.961Z,44.20
2023-03-17T14:18:30.888Z,45.65
2023-03-17T14:20:59.029Z,39.93
2023-03-17T14:23:26.227Z,32.83
2023-03-17T14:25:56.093Z,47.24
2023-03-17T14:28:27.350Z,41.11
2023-03-17T14:30:55.808Z,46.92
2023-03-17T14:33:24.799Z,49.53
2023-03-17T14:35:52.863Z,49.93
2023-03-17T14:38:20.000Z,45.44
2023-03-17T14:40:47.096Z,48.22
2023-03-17T14:43:14.486Z,48.62
2023-03-17T14:45:44.165Z,43.12
2023-03-17T14:48:15.000Z,42.05
2023-03-17T14:51:08.434Z,47.96
2023-03-17T14:53:36.287Z,49.21
2023-03-17T14:56:04.549Z,37.35
2023-03-17T14:58:35.717Z,45.88
2023-03-17T15:01:05.591Z,44.93
2023-03-17T15:03:34.331Z,48.63
2023-03-17T15:06:06.638Z,48.42
2023-03-17T15:08:36.078Z,49.04
2023-03-17T15:11:04.641Z,48.82
2023-03-17T15:13:33.750Z,50.19
2023-03-17T15:16:05.792Z,48.07
2023-03-17T15:18:32.570Z,42.48
2023-03-17T15:21:00.772Z,45.79
2023-03-17T15:23:29.055Z,46.37
2023-03-17T15:25:56.841Z,49.90
2023-03-17T15:28:25.448Z,50.49
2023-03-17T15:30:56.783Z,51.44
2023-03-17T15:33:35.733Z,48.04
2023-03-17T15:36:02.710Z,47.58
2023-03-17T15:38:30.441Z,50.24
2023-03-17T15:40:57.444Z,50.27
2023-03-17T15:43:24.398Z,49.61
2023-03-17T15:45:54.200Z,47.95
2023-03-17T15:48:25.115Z,49.87
2023-03-17T15:50:53.166Z,50.06
2023-03-17T15:53:21.257Z,47.19
2023-03-17T15:55:49.308Z,50.51
2023-03-17T15:58:16.382Z,50.39
2023-03-17T16:00:44.573Z,49.13
2023-03-17T16:03:31.593Z,44.77
2023-03-17T16:05:59.275Z,48.83
2023-03-17T16:08:26.474Z,44.52
2023-03-17T16:10:53.659Z,48.03
2023-03-17T16:13:20.623Z,49.38
2023-03-17T16:15:52.896Z,49.81
2023-03-17T16:18:23.077Z,47.77
2023-03-17T16:20:51.026Z,47.94
2023-03-17T16:23:19.775Z,48.40
2023-03-17T16:25:46.940Z,47.51
2023-03-17T16:28:13.697Z,47.00
2023-03-17T16:30:41.010Z,49.08
2023-03-17T16:33:19.280Z,49.96
2023-03-17T16:35:46.423Z,49.56
2023-03-17T16:38:14.415Z,49.77
2023-03-17T16:40:41.589Z,50.72
2023-03-17T16:43:25.557Z,50.23
2023-03-17T16:45:54.515Z,50.64
2023-03-17T16:48:24.616Z,50.89
2023-03-17T16:50:53.967Z,50.42
2023-03-17T16:53:21.138Z,50.54
2023-03-17T16:55:48.249Z,50.97
2023-03-17T16:58:18.024Z,50.99
2023-03-17T17:00:46.520Z,50.99
2023-03-17T17:03:13.968Z,50.32
2023-03-17T17:05:41.515Z,48.63
2023-03-17T17:08:08.632Z,49.99
2023-03-17T17:10:36.358Z,50.12
2023-03-17T17:13:05.855Z,50.06
2023-03-17T17:15:35.460Z,49.83
2023-03-17T17:18:04.870Z,49.84
2023-03-17T17:20:33.962Z,50.15
2023-03-17T17:23:02.019Z,49.59
2023-03-17T17:25:29.830Z,50.71
2023-03-17T17:27:57.767Z,51.19
2023-03-17T17:30:28.083Z,51.07
2023-03-17T17:32:57.257Z,50.83
2023-03-17T17:35:25.711Z,50.14
2023-03-17T17:37:55.090Z,50.77
2023-03-17T17:40:24.641Z,49.67
2023-03-17T17:42:52.228Z,50.49
2023-03-17T17:45:20.384Z,51.08
2023-03-17T17:47:47.548Z,51.62
2023-03-17T17:50:18.616Z,51.49
2023-03-17T17:52:47.588Z,51.38
2023-03-17T17:55:14.598Z,51.09
2023-03-17T17:57:42.182Z,51.84
2023-03-17T18:00:10.580Z,51.46
2023-03-17T18:02:37.565Z,51.49
2023-03-17T18:05:06.196Z,52.02
2023-03-17T18:07:33.427Z,51.82
2023-03-17T18:10:00.750Z,52.42
2023-03-17T18:12:28.157Z,52.68
2023-03-17T18:14:55.041Z,52.33
2023-03-17T18:17:22.231Z,52.08
2023-03-17T18:19:49.721Z,52.49
2023-03-17T18:22:17.142Z,52.64
2023-03-17T18:24:44.292Z,52.62
2023-03-17T18:27:11.984Z,53.03
2023-03-17T18:29:39.124Z,52.83
2023-03-17T18:32:07.118Z,52.60
2023-03-17T18:34:38.455Z,53.15
2023-03-17T18:37:07.773Z,52.64
2023-03-17T18:39:34.693Z,52.84
2023-03-17T18:42:01.728Z,53.11
2023-03-17T18:44:29.222Z,52.46
2023-03-17T18:46:56.036Z,52.93
2023-03-17T18:49:25.410Z,52.86
2023-03-17T18:51:52.997Z,52.54
2023-03-17T18:54:20.068Z,52.84
2023-03-17T18:56:47.756Z,52.76
2023-03-17T18:59:14.831Z,53.00
2023-03-17T19:01:41.893Z,53.06
2023-03-17T19:04:09.090Z,53.30
2023-03-17T19:06:39.619Z,53.36
2023-03-17T19:09:07.875Z,52.97
2023-03-17T19:11:34.780Z,53.17
2023-03-17T19:14:02.157Z,52.87
2023-03-17T19:16:29.259Z,52.97
2023-03-17T19:18:56.696Z,53.26
2023-03-17T19:21:23.931Z,53.47
2023-03-17T19:23:51.137Z,53.26
2023-03-17T19:26:18.988Z,53.06
2023-03-17T19:28:46.107Z,53.29
2023-03-17T19:31:13.124Z,53.11
2023-03-17T19:33:40.138Z,53.60
2023-03-17T19:36:08.573Z,53.25
2023-03-17T19:38:36.418Z,53.66
2023-03-17T19:41:03.668Z,53.58
2023-03-17T19:43:40.332Z,53.52
2023-03-17T19:46:08.927Z,53.78
2023-03-17T19:48:36.705Z,53.68
2023-03-17T19:51:03.655Z,53.04
2023-03-17T19:53:30.556Z,53.14
2023-03-17T19:55:57.664Z,53.44
2023-03-17T19:58:24.524Z,53.73
2023-03-17T20:00:51.749Z,53.41
2023-03-17T20:03:18.802Z,53.34
2023-03-17T20:05:46.377Z,53.86
2023-03-17T20:08:14.671Z,54.00
2023-03-17T20:10:41.585Z,53.59
2023-03-17T20:13:08.473Z,53.63
2023-03-17T20:15:35.566Z,53.38
2023-03-17T20:18:02.384Z,53.54
2023-03-17T20:20:29.914Z,53.89
2023-03-17T20:22:57.404Z,53.83
2023-03-17T20:25:24.230Z,53.92
2023-03-17T20:27:51.204Z,53.95
2023-03-17T20:30:18.173Z,53.63
2023-03-17T20:32:45.345Z,53.67
2023-03-17T20:35:12.504Z,53.37
2023-03-17T20:37:39.629Z,53.47
2023-03-17T20:40:09.055Z,53.88
2023-03-17T20:42:36.535Z,53.97
2023-03-17T20:45:03.860Z,53.36
2023-03-17T20:47:31.069Z,53.30
2023-03-17T20:49:59.018Z,53.80
2023-03-17T20:52:29.624Z,53.88
2023-03-17T20:54:56.987Z,53.87
2023-03-17T20:57:23.845Z,53.45
2023-03-17T20:59:52.028Z,53.56
2023-03-17T21:02:19.188Z,54.30
2023-03-17T21:04:49.588Z,54.07
2023-03-17T21:07:17.980Z,53.43
2023-03-17T21:09:45.459Z,53.74
2023-03-17T21:12:16.155Z,53.97
2023-03-17T21:14:43.203Z,54.02
2023-03-17T21:17:10.737Z,53.88
2023-03-17T21:19:38.167Z,53.84
2023-03-17T21:22:05.678Z,53.86
2023-03-17T21:24:33.781Z,53.92
2023-03-17T21:27:01.499Z,53.74
2023-03-17T21:29:28.824Z,53.85
2023-03-17T21:32:00.651Z,53.80
2023-03-17T21:34:28.374Z,53.61
2023-03-17T21:36:55.788Z,53.82
2023-03-17T21:39:22.843Z,53.96
2023-03-17T21:41:51.034Z,53.83
2023-03-17T21:44:18.804Z,53.77
2023-03-17T21:46:46.726Z,53.25
2023-03-17T21:49:16.223Z,53.71
2023-03-17T21:51:44.400Z,54.09
2023-03-17T21:54:11.295Z,53.79
2023-03-17T21:56:38.776Z,53.95
2023-03-17T21:59:06.126Z,53.75
2023-03-17T22:01:33.379Z,53.88
2023-03-17T22:04:02.451Z,54.08
2023-03-17T22:06:29.648Z,54.14
2023-03-17T22:08:56.526Z,53.80
2023-03-17T22:11:23.312Z,53.92
2023-03-17T22:13:50.214Z,53.94
2023-03-17T22:16:17.452Z,53.93
2023-03-17T22:18:44.341Z,54.26
2023-03-17T22:21:11.205Z,54.19
2023-03-17T22:23:42.407Z,54.04
2023-03-17T22:26:12.510Z,53.99
2023-03-17T22:28:40.775Z,54.25
2023-03-17T22:31:14.764Z,54.23
2023-03-17T22:33:42.051Z,54.20
2023-03-17T22:36:09.360Z,54.18
2023-03-17T22:38:36.279Z,54.17
2023-03-17T22:41:04.570Z,54.16
2023-03-17T22:43:32.382Z,54.28
2023-03-17T22:45:59.259Z,54.29
2023-03-17T22:48:26.477Z,54.12
2023-03-17T22:50:53.339Z,54.19
2023-03-17T22:53:20.531Z,54.20
2023-03-17T22:55:47.296Z,54.23
2023-03-17T22:58:14.180Z,54.54
2023-03-17T23:00:40.965Z,54.58
2023-03-17T23:03:08.552Z,54.40
2023-03-17T23:05:35.519Z,54.42
2023-03-17T23:08:02.387Z,54.32
2023-03-17T23:10:29.829Z,54.44
2023-03-17T23:12:56.869Z,54.37
2023-03-17T23:15:23.883Z,54.46
2023-03-17T23:17:50.887Z,54.47
2023-03-17T23:20:17.863Z,54.38
2023-03-17T23:22:44.746Z,54.51
2023-03-17T23:25:13.728Z,54.47
2023-03-17T23:27:40.985Z,54.27
2023-03-17T23:30:09.008Z,54.43
2023-03-17T23:32:36.826Z,54.45
2023-03-17T23:35:03.845Z,54.58
2023-03-17T23:37:30.960Z,54.62
2023-03-17T23:39:57.758Z,54.29
2023-03-17T23:42:24.900Z,54.61
2023-03-17T23:44:51.843Z,54.49
2023-03-17T23:47:20.628Z,54.42
2023-03-17T23:49:47.675Z,54.53
2023-03-17T23:52:15.504Z,54.71
2023-03-17T23:54:42.302Z,54.49
2023-03-17T23:57:09.331Z,54.56
2023-03-17T23:59:36.391Z,54.55
